sensor_id;sensor_type;location;lat;lon;timestamp;temperature;humidity
11784;DHT22;5949;40.386;18.150;2022-09-09T00:01:51;27.20;99.90
11784;DHT22;5949;40.386;18.150;2022-09-09T00:04:26;27.10;99.90
11784;DHT22;5949;40.386;18.150;2022-09-09T00:07:01;27.10;99.90
11784;DHT22;5949;40.386;18.150;2022-09-09T00:09:35;27.10;99.90
11784;DHT22;5949;40.386;18.150;2022-09-09T00:12:11;27.10;99.90
11784;DHT22;5949;40.386;18.150;2022-09-09T00:14:45;27.10;99.90
11784;DHT22;5949;40.386;18.150;2022-09-09T00:17:24;27.00;99.90
11784;DHT22;5949;40.386;18.150;2022-09-09T00:19:56;27.00;99.90
11784;DHT22;5949;40.386;18.150;2022-09-09T00:22:29;27.00;99.90
11784;DHT22;5949;40.386;18.150;2022-09-09T00:25:05;27.00;99.90
11784;DHT22;5949;40.386;18.150;2022-09-09T00:27:41;27.00;99.90
11784;DHT22;5949;40.386;18.150;2022-09-09T00:30:16;27.00;99.90
11784;DHT22;5949;40.386;18.150;2022-09-09T00:32:48;27.00;99.90
11784;DHT22;5949;40.386;18.150;2022-09-09T00:35:18;27.00;99.90
11784;DHT22;5949;40.386;18.150;2022-09-09T00:37:51;27.00;99.90
11784;DHT22;5949;40.386;18.150;2022-09-09T00:40:24;27.00;99.90
11784;DHT22;5949;40.386;18.150;2022-09-09T00:43:10;27.00;99.90
11784;DHT22;5949;40.386;18.150;2022-09-09T00:45:57;27.00;99.90
11784;DHT22;5949;40.386;18.150;2022-09-09T00:48:34;27.00;99.90
11784;DHT22;5949;40.386;18.150;2022-09-09T00:51:12;27.00;99.90
11784;DHT22;5949;40.386;18.150;2022-09-09T00:54:10;27.00;99.90
11784;DHT22;5949;40.386;18.150;2022-09-09T00:56:45;27.00;99.90
11784;DHT22;5949;40.386;18.150;2022-09-09T00:59:24;27.00;99.90
11784;DHT22;5949;40.386;18.150;2022-09-09T01:01:54;27.00;99.90
11784;DHT22;5949;40.386;18.150;2022-09-09T01:04:28;27.00;99.90
11784;DHT22;5949;40.386;18.150;2022-09-09T01:07:16;27.00;99.90
11784;DHT22;5949;40.386;18.150;2022-09-09T01:09:52;27.00;99.90
11784;DHT22;5949;40.386;18.150;2022-09-09T01:12:26;27.00;99.90
11784;DHT22;5949;40.386;18.150;2022-09-09T01:15:01;27.00;99.90
11784;DHT22;5949;40.386;18.150;2022-09-09T01:17:33;27.00;99.90
11784;DHT22;5949;40.386;18.150;2022-09-09T01:20:08;26.80;99.90
11784;DHT22;5949;40.386;18.150;2022-09-09T01:22:44;26.90;99.90
11784;DHT22;5949;40.386;18.150;2022-09-09T01:25:56;26.90;99.90
11784;DHT22;5949;40.386;18.150;2022-09-09T01:28:27;26.90;99.90
11784;DHT22;5949;40.386;18.150;2022-09-09T01:30:56;26.90;99.90
11784;DHT22;5949;40.386;18.150;2022-09-09T01:33:24;26.80;99.90
11784;DHT22;5949;40.386;18.150;2022-09-09T01:35:55;26.80;99.90
11784;DHT22;5949;40.386;18.150;2022-09-09T01:38:25;26.80;99.90
11784;DHT22;5949;40.386;18.150;2022-09-09T01:40:54;26.90;99.90
11784;DHT22;5949;40.386;18.150;2022-09-09T01:43:25;26.80;99.90
11784;DHT22;5949;40.386;18.150;2022-09-09T01:45:54;26.80;99.90
11784;DHT22;5949;40.386;18.150;2022-09-09T01:48:24;26.80;99.90
11784;DHT22;5949;40.386;18.150;2022-09-09T01:50:52;26.80;99.90
11784;DHT22;5949;40.386;18.150;2022-09-09T01:53:21;26.70;99.90
11784;DHT22;5949;40.386;18.150;2022-09-09T01:55:59;26.70;99.90
11784;DHT22;5949;40.386;18.150;2022-09-09T01:58:37;26.70;99.90
11784;DHT22;5949;40.386;18.150;2022-09-09T02:01:15;26.70;99.90
11784;DHT22;5949;40.386;18.150;2022-09-09T02:03:49;26.70;99.90
11784;DHT22;5949;40.386;18.150;2022-09-09T02:06:26;26.70;99.90
11784;DHT22;5949;40.386;18.150;2022-09-09T02:08:56;26.70;99.90
11784;DHT22;5949;40.386;18.150;2022-09-09T02:11:28;26.70;99.90
11784;DHT22;5949;40.386;18.150;2022-09-09T02:14:01;26.70;99.90
11784;DHT22;5949;40.386;18.150;2022-09-09T02:16:34;26.70;99.90
11784;DHT22;5949;40.386;18.150;2022-09-09T02:19:08;26.70;99.90
11784;DHT22;5949;40.386;18.150;2022-09-09T02:21:40;26.70;99.90
11784;DHT22;5949;40.386;18.150;2022-09-09T02:24:11;26.70;99.90
11784;DHT22;5949;40.386;18.150;2022-09-09T02:26:43;26.70;99.90
11784;DHT22;5949;40.386;18.150;2022-09-09T02:29:16;26.70;99.90
11784;DHT22;5949;40.386;18.150;2022-09-09T02:31:45;26.60;99.90
11784;DHT22;5949;40.386;18.150;2022-09-09T02:34:17;26.70;99.90
11784;DHT22;5949;40.386;18.150;2022-09-09T02:36:46;26.60;99.90
11784;DHT22;5949;40.386;18.150;2022-09-09T02:39:14;26.70;99.90
11784;DHT22;5949;40.386;18.150;2022-09-09T02:41:43;26.60;99.90
11784;DHT22;5949;40.386;18.150;2022-09-09T02:44:11;26.60;99.90
11784;DHT22;5949;40.386;18.150;2022-09-09T02:49:56;26.70;99.90
11784;DHT22;5949;40.386;18.150;2022-09-09T02:52:33;26.70;99.90
11784;DHT22;5949;40.386;18.150;2022-09-09T02:55:07;26.60;99.90
11784;DHT22;5949;40.386;18.150;2022-09-09T02:57:41;26.60;99.90
11784;DHT22;5949;40.386;18.150;2022-09-09T03:00:12;26.60;99.90
11784;DHT22;5949;40.386;18.150;2022-09-09T03:02:39;26.60;99.90
11784;DHT22;5949;40.386;18.150;2022-09-09T03:05:08;26.70;99.90
11784;DHT22;5949;40.386;18.150;2022-09-09T03:07:35;26.70;99.90
11784;DHT22;5949;40.386;18.150;2022-09-09T03:10:03;26.60;99.90
11784;DHT22;5949;40.386;18.150;2022-09-09T03:12:31;26.60;99.90
11784;DHT22;5949;40.386;18.150;2022-09-09T03:15:01;26.60;99.90
11784;DHT22;5949;40.386;18.150;2022-09-09T03:17:28;26.60;99.90
11784;DHT22;5949;40.386;18.150;2022-09-09T03:19:55;26.60;99.90
11784;DHT22;5949;40.386;18.150;2022-09-09T03:22:23;26.50;99.90
11784;DHT22;5949;40.386;18.150;2022-09-09T03:24:51;26.60;99.90
11784;DHT22;5949;40.386;18.150;2022-09-09T03:27:18;26.50;99.90
11784;DHT22;5949;40.386;18.150;2022-09-09T03:29:46;26.60;99.90
11784;DHT22;5949;40.386;18.150;2022-09-09T03:32:18;26.50;99.90
11784;DHT22;5949;40.386;18.150;2022-09-09T03:34:48;26.50;99.90
11784;DHT22;5949;40.386;18.150;2022-09-09T03:37:15;26.50;99.90
11784;DHT22;5949;40.386;18.150;2022-09-09T03:39:43;26.50;99.90
11784;DHT22;5949;40.386;18.150;2022-09-09T03:42:12;26.50;99.90
11784;DHT22;5949;40.386;18.150;2022-09-09T03:44:44;26.50;99.90
11784;DHT22;5949;40.386;18.150;2022-09-09T03:47:18;26.50;99.90
11784;DHT22;5949;40.386;18.150;2022-09-09T03:49:47;26.50;99.90
11784;DHT22;5949;40.386;18.150;2022-09-09T03:52:15;26.50;99.90
11784;DHT22;5949;40.386;18.150;2022-09-09T03:54:44;26.40;99.90
11784;DHT22;5949;40.386;18.150;2022-09-09T03:57:11;26.40;99.90
11784;DHT22;5949;40.386;18.150;2022-09-09T03:59:42;26.50;99.90
11784;DHT22;5949;40.386;18.150;2022-09-09T04:02:10;26.50;99.90
11784;DHT22;5949;40.386;18.150;2022-09-09T04:04:38;26.50;99.90
11784;DHT22;5949;40.386;18.150;2022-09-09T04:07:06;26.40;99.90
11784;DHT22;5949;40.386;18.150;2022-09-09T04:09:33;26.50;99.90
11784;DHT22;5949;40.386;18.150;2022-09-09T04:12:02;26.50;99.90
11784;DHT22;5949;40.386;18.150;2022-09-09T04:14:30;26.50;99.90
11784;DHT22;5949;40.386;18.150;2022-09-09T04:16:57;26.40;99.90
11784;DHT22;5949;40.386;18.150;2022-09-09T04:19:25;26.50;99.90
11784;DHT22;5949;40.386;18.150;2022-09-09T04:21:54;26.50;99.90
11784;DHT22;5949;40.386;18.150;2022-09-09T04:24:21;26.50;99.90
11784;DHT22;5949;40.386;18.150;2022-09-09T04:26:50;26.50;99.90
11784;DHT22;5949;40.386;18.150;2022-09-09T04:29:18;26.50;99.90
11784;DHT22;5949;40.386;18.150;2022-09-09T04:31:45;26.50;99.90
11784;DHT22;5949;40.386;18.150;2022-09-09T04:34:13;26.50;99.90
11784;DHT22;5949;40.386;18.150;2022-09-09T04:36:40;26.50;99.90
11784;DHT22;5949;40.386;18.150;2022-09-09T04:39:09;26.50;99.90
11784;DHT22;5949;40.386;18.150;2022-09-09T04:41:36;26.60;99.90
11784;DHT22;5949;40.386;18.150;2022-09-09T04:44:04;26.50;99.90
11784;DHT22;5949;40.386;18.150;2022-09-09T04:46:31;26.50;99.90
11784;DHT22;5949;40.386;18.150;2022-09-09T04:49:00;26.50;99.90
11784;DHT22;5949;40.386;18.150;2022-09-09T04:51:27;26.60;99.90
11784;DHT22;5949;40.386;18.150;2022-09-09T04:53:57;26.50;99.90
11784;DHT22;5949;40.386;18.150;2022-09-09T04:56:26;26.60;99.90
11784;DHT22;5949;40.386;18.150;2022-09-09T04:58:54;26.60;99.90
11784;DHT22;5949;40.386;18.150;2022-09-09T05:01:23;26.70;99.90
11784;DHT22;5949;40.386;18.150;2022-09-09T05:03:50;26.60;99.90
11784;DHT22;5949;40.386;18.150;2022-09-09T05:06:20;26.70;99.90
11784;DHT22;5949;40.386;18.150;2022-09-09T05:09:01;26.70;99.90
11784;DHT22;5949;40.386;18.150;2022-09-09T05:11:32;26.70;99.90
11784;DHT22;5949;40.386;18.150;2022-09-09T05:14:01;26.70;99.90
11784;DHT22;5949;40.386;18.150;2022-09-09T05:16:29;26.80;99.90
11784;DHT22;5949;40.386;18.150;2022-09-09T05:18:57;26.80;99.90
11784;DHT22;5949;40.386;18.150;2022-09-09T05:21:25;26.80;99.90
11784;DHT22;5949;40.386;18.150;2022-09-09T05:23:54;26.80;99.90
11784;DHT22;5949;40.386;18.150;2022-09-09T05:26:22;26.80;99.90
11784;DHT22;5949;40.386;18.150;2022-09-09T05:28:51;26.90;99.90
11784;DHT22;5949;40.386;18.150;2022-09-09T05:31:19;26.90;99.90
11784;DHT22;5949;40.386;18.150;2022-09-09T05:33:47;26.90;99.90
11784;DHT22;5949;40.386;18.150;2022-09-09T05:36:16;26.90;99.90
11784;DHT22;5949;40.386;18.150;2022-09-09T05:38:44;26.90;99.90
11784;DHT22;5949;40.386;18.150;2022-09-09T05:41:12;26.90;99.90
11784;DHT22;5949;40.386;18.150;2022-09-09T05:43:41;27.00;99.90
11784;DHT22;5949;40.386;18.150;2022-09-09T05:46:13;27.00;99.90
11784;DHT22;5949;40.386;18.150;2022-09-09T05:48:42;27.10;99.90
11784;DHT22;5949;40.386;18.150;2022-09-09T05:51:11;27.10;99.90
11784;DHT22;5949;40.386;18.150;2022-09-09T05:53:41;27.20;99.90
11784;DHT22;5949;40.386;18.150;2022-09-09T05:56:11;27.20;99.90
11784;DHT22;5949;40.386;18.150;2022-09-09T05:58:40;27.20;99.90
11784;DHT22;5949;40.386;18.150;2022-09-09T06:01:12;27.20;99.90
11784;DHT22;5949;40.386;18.150;2022-09-09T06:03:41;27.20;99.90
11784;DHT22;5949;40.386;18.150;2022-09-09T06:06:10;27.30;99.90
11784;DHT22;5949;40.386;18.150;2022-09-09T06:08:45;27.30;99.90
11784;DHT22;5949;40.386;18.150;2022-09-09T06:11:14;27.40;99.90
11784;DHT22;5949;40.386;18.150;2022-09-09T06:13:42;27.40;99.90
11784;DHT22;5949;40.386;18.150;2022-09-09T06:16:12;27.40;99.90
11784;DHT22;5949;40.386;18.150;2022-09-09T06:18:41;27.40;99.90
11784;DHT22;5949;40.386;18.150;2022-09-09T06:21:13;27.50;99.90
11784;DHT22;5949;40.386;18.150;2022-09-09T06:23:42;28.00;99.90
11784;DHT22;5949;40.386;18.150;2022-09-09T06:26:12;28.20;99.90
11784;DHT22;5949;40.386;18.150;2022-09-09T06:28:40;28.70;99.90
11784;DHT22;5949;40.386;18.150;2022-09-09T06:31:11;28.70;99.90
11784;DHT22;5949;40.386;18.150;2022-09-09T06:33:41;29.00;99.90
11784;DHT22;5949;40.386;18.150;2022-09-09T06:36:11;29.40;99.90
11784;DHT22;5949;40.386;18.150;2022-09-09T06:38:39;29.60;99.90
11784;DHT22;5949;40.386;18.150;2022-09-09T06:41:08;29.60;99.90
11784;DHT22;5949;40.386;18.150;2022-09-09T06:43:36;29.80;99.90
11784;DHT22;5949;40.386;18.150;2022-09-09T06:46:05;30.00;99.90
11784;DHT22;5949;40.386;18.150;2022-09-09T06:48:34;30.20;99.90
11784;DHT22;5949;40.386;18.150;2022-09-09T06:51:05;29.90;99.90
11784;DHT22;5949;40.386;18.150;2022-09-09T06:53:33;30.20;99.90
11784;DHT22;5949;40.386;18.150;2022-09-09T06:56:00;30.40;99.90
11784;DHT22;5949;40.386;18.150;2022-09-09T06:58:28;30.50;99.90
11784;DHT22;5949;40.386;18.150;2022-09-09T07:01:02;30.50;99.90
11784;DHT22;5949;40.386;18.150;2022-09-09T07:03:30;30.30;99.90
11784;DHT22;5949;40.386;18.150;2022-09-09T07:05:58;30.00;99.90
11784;DHT22;5949;40.386;18.150;2022-09-09T07:08:27;29.80;99.90
11784;DHT22;5949;40.386;18.150;2022-09-09T07:10:54;30.00;99.90
11784;DHT22;5949;40.386;18.150;2022-09-09T07:13:30;30.20;99.90
11784;DHT22;5949;40.386;18.150;2022-09-09T07:16:04;30.10;99.90
11784;DHT22;5949;40.386;18.150;2022-09-09T07:18:31;29.70;99.90
11784;DHT22;5949;40.386;18.150;2022-09-09T07:20:59;29.70;99.90
11784;DHT22;5949;40.386;18.150;2022-09-09T07:23:29;29.90;99.90
11784;DHT22;5949;40.386;18.150;2022-09-09T07:25:57;29.90;99.90
11784;DHT22;5949;40.386;18.150;2022-09-09T07:28:25;29.60;99.90
11784;DHT22;5949;40.386;18.150;2022-09-09T07:30:55;29.70;99.90
11784;DHT22;5949;40.386;18.150;2022-09-09T07:33:23;29.70;99.90
11784;DHT22;5949;40.386;18.150;2022-09-09T07:35:51;29.50;99.90
11784;DHT22;5949;40.386;18.150;2022-09-09T07:38:19;29.30;99.90
11784;DHT22;5949;40.386;18.150;2022-09-09T07:40:50;29.60;99.90
11784;DHT22;5949;40.386;18.150;2022-09-09T07:43:17;29.90;99.90
11784;DHT22;5949;40.386;18.150;2022-09-09T07:45:45;30.40;99.90
11784;DHT22;5949;40.386;18.150;2022-09-09T07:48:13;30.60;99.90
11784;DHT22;5949;40.386;18.150;2022-09-09T07:50:40;30.90;99.90
11784;DHT22;5949;40.386;18.150;2022-09-09T07:53:08;31.20;99.90
11784;DHT22;5949;40.386;18.150;2022-09-09T07:55:36;31.40;99.90
11784;DHT22;5949;40.386;18.150;2022-09-09T07:58:05;31.50;99.90
11784;DHT22;5949;40.386;18.150;2022-09-09T08:00:32;31.50;99.90
11784;DHT22;5949;40.386;18.150;2022-09-09T08:03:00;31.70;99.90
11784;DHT22;5949;40.386;18.150;2022-09-09T08:05:28;31.50;99.90
11784;DHT22;5949;40.386;18.150;2022-09-09T08:07:56;31.10;99.90
11784;DHT22;5949;40.386;18.150;2022-09-09T08:10:23;30.80;99.90
11784;DHT22;5949;40.386;18.150;2022-09-09T08:12:51;31.20;99.90
11784;DHT22;5949;40.386;18.150;2022-09-09T08:15:21;31.60;99.90
11784;DHT22;5949;40.386;18.150;2022-09-09T08:17:48;31.20;99.90
11784;DHT22;5949;40.386;18.150;2022-09-09T08:20:16;31.10;99.90
11784;DHT22;5949;40.386;18.150;2022-09-09T08:22:44;30.90;99.90
11784;DHT22;5949;40.386;18.150;2022-09-09T08:25:11;30.90;99.90
11784;DHT22;5949;40.386;18.150;2022-09-09T08:27:39;30.90;99.90
11784;DHT22;5949;40.386;18.150;2022-09-09T08:30:08;31.20;99.90
11784;DHT22;5949;40.386;18.150;2022-09-09T08:32:37;31.80;99.90
11784;DHT22;5949;40.386;18.150;2022-09-09T08:35:05;31.40;99.90
11784;DHT22;5949;40.386;18.150;2022-09-09T08:37:33;31.10;99.90
11784;DHT22;5949;40.386;18.150;2022-09-09T08:40:01;30.90;99.90
11784;DHT22;5949;40.386;18.150;2022-09-09T08:42:37;31.10;99.90
11784;DHT22;5949;40.386;18.150;2022-09-09T08:45:31;31.00;99.90
11784;DHT22;5949;40.386;18.150;2022-09-09T08:48:17;31.00;99.90
11784;DHT22;5949;40.386;18.150;2022-09-09T08:50:49;31.10;99.90
11784;DHT22;5949;40.386;18.150;2022-09-09T08:53:20;31.30;99.90
11784;DHT22;5949;40.386;18.150;2022-09-09T08:55:50;31.50;99.90
11784;DHT22;5949;40.386;18.150;2022-09-09T08:58:19;31.20;99.90
11784;DHT22;5949;40.386;18.150;2022-09-09T09:01:22;31.30;99.90
11784;DHT22;5949;40.386;18.150;2022-09-09T09:04:00;31.20;99.90
11784;DHT22;5949;40.386;18.150;2022-09-09T09:06:40;31.10;99.90
11784;DHT22;5949;40.386;18.150;2022-09-09T09:09:18;31.20;99.90
11784;DHT22;5949;40.386;18.150;2022-09-09T09:11:51;31.00;99.90
11784;DHT22;5949;40.386;18.150;2022-09-09T09:14:20;31.50;99.90
11784;DHT22;5949;40.386;18.150;2022-09-09T09:16:53;31.40;99.90
11784;DHT22;5949;40.386;18.150;2022-09-09T09:19:22;31.50;99.90
11784;DHT22;5949;40.386;18.150;2022-09-09T09:21:56;31.50;99.90
11784;DHT22;5949;40.386;18.150;2022-09-09T09:24:29;31.50;99.90
11784;DHT22;5949;40.386;18.150;2022-09-09T09:27:04;31.70;99.90
11784;DHT22;5949;40.386;18.150;2022-09-09T09:29:37;32.10;99.90
11784;DHT22;5949;40.386;18.150;2022-09-09T09:32:07;32.10;99.90
11784;DHT22;5949;40.386;18.150;2022-09-09T09:34:40;32.30;99.90
11784;DHT22;5949;40.386;18.150;2022-09-09T09:37:15;32.30;99.90
11784;DHT22;5949;40.386;18.150;2022-09-09T09:39:45;32.10;99.90
11784;DHT22;5949;40.386;18.150;2022-09-09T09:42:16;32.10;99.90
11784;DHT22;5949;40.386;18.150;2022-09-09T09:44:44;32.40;99.90
11784;DHT22;5949;40.386;18.150;2022-09-09T09:47:14;32.10;99.90
11784;DHT22;5949;40.386;18.150;2022-09-09T09:49:52;31.90;99.90
11784;DHT22;5949;40.386;18.150;2022-09-09T09:52:23;32.30;99.90
11784;DHT22;5949;40.386;18.150;2022-09-09T09:54:52;32.40;99.90
11784;DHT22;5949;40.386;18.150;2022-09-09T09:57:25;32.50;99.90
11784;DHT22;5949;40.386;18.150;2022-09-09T10:00:03;32.60;99.90
11784;DHT22;5949;40.386;18.150;2022-09-09T10:02:38;32.80;99.90
11784;DHT22;5949;40.386;18.150;2022-09-09T10:05:19;32.70;99.90
11784;DHT22;5949;40.386;18.150;2022-09-09T10:07:59;32.70;99.90
11784;DHT22;5949;40.386;18.150;2022-09-09T10:10:45;32.70;99.90
11784;DHT22;5949;40.386;18.150;2022-09-09T10:13:19;32.70;99.90
11784;DHT22;5949;40.386;18.150;2022-09-09T10:15:59;32.90;99.90
11784;DHT22;5949;40.386;18.150;2022-09-09T10:18:57;32.70;99.90
11784;DHT22;5949;40.386;18.150;2022-09-09T10:21:54;32.60;99.90
11784;DHT22;5949;40.386;18.150;2022-09-09T10:24:55;32.60;99.90
11784;DHT22;5949;40.386;18.150;2022-09-09T10:27:33;32.80;99.90
11784;DHT22;5949;40.386;18.150;2022-09-09T10:30:12;32.70;99.90
11784;DHT22;5949;40.386;18.150;2022-09-09T10:32:48;32.70;99.90
11784;DHT22;5949;40.386;18.150;2022-09-09T10:35:27;32.80;99.90
11784;DHT22;5949;40.386;18.150;2022-09-09T10:38:15;32.60;99.90
11784;DHT22;5949;40.386;18.150;2022-09-09T10:40:48;32.70;99.90
11784;DHT22;5949;40.386;18.150;2022-09-09T10:43:38;32.30;99.90
11784;DHT22;5949;40.386;18.150;2022-09-09T10:46:14;32.10;99.90
11784;DHT22;5949;40.386;18.150;2022-09-09T10:49:00;32.20;99.90
11784;DHT22;5949;40.386;18.150;2022-09-09T10:51:38;32.50;99.90
11784;DHT22;5949;40.386;18.150;2022-09-09T10:54:24;32.40;99.90
11784;DHT22;5949;40.386;18.150;2022-09-09T10:57:00;32.70;99.90
11784;DHT22;5949;40.386;18.150;2022-09-09T10:59:33;32.80;99.90
11784;DHT22;5949;40.386;18.150;2022-09-09T11:02:07;33.20;99.90
11784;DHT22;5949;40.386;18.150;2022-09-09T11:04:42;33.20;99.90
11784;DHT22;5949;40.386;18.150;2022-09-09T11:07:19;33.10;99.90
11784;DHT22;5949;40.386;18.150;2022-09-09T11:09:54;33.30;99.90
11784;DHT22;5949;40.386;18.150;2022-09-09T11:12:23;33.20;99.90
11784;DHT22;5949;40.386;18.150;2022-09-09T11:14:57;33.10;99.90
11784;DHT22;5949;40.386;18.150;2022-09-09T11:17:28;32.80;99.90
11784;DHT22;5949;40.386;18.150;2022-09-09T11:19:57;32.90;99.90
11784;DHT22;5949;40.386;18.150;2022-09-09T11:22:27;32.70;99.90
11784;DHT22;5949;40.386;18.150;2022-09-09T11:25:03;33.10;99.90
11784;DHT22;5949;40.386;18.150;2022-09-09T11:27:37;32.90;99.90
11784;DHT22;5949;40.386;18.150;2022-09-09T11:30:18;33.20;99.90
11784;DHT22;5949;40.386;18.150;2022-09-09T11:33:01;33.20;99.90
11784;DHT22;5949;40.386;18.150;2022-09-09T11:35:40;33.10;99.90
11784;DHT22;5949;40.386;18.150;2022-09-09T11:38:31;33.10;99.90
11784;DHT22;5949;40.386;18.150;2022-09-09T11:41:05;33.00;99.90
11784;DHT22;5949;40.386;18.150;2022-09-09T11:43:40;32.90;99.90
11784;DHT22;5949;40.386;18.150;2022-09-09T11:46:08;33.00;99.90
11784;DHT22;5949;40.386;18.150;2022-09-09T11:48:38;33.10;99.90
11784;DHT22;5949;40.386;18.150;2022-09-09T11:51:26;33.20;99.90
11784;DHT22;5949;40.386;18.150;2022-09-09T11:54:02;33.20;99.90
11784;DHT22;5949;40.386;18.150;2022-09-09T11:56:34;33.30;99.90
11784;DHT22;5949;40.386;18.150;2022-09-09T11:59:04;33.10;99.90
11784;DHT22;5949;40.386;18.150;2022-09-09T12:01:36;33.20;99.90
11784;DHT22;5949;40.386;18.150;2022-09-09T12:07:02;33.40;99.90
11784;DHT22;5949;40.386;18.150;2022-09-09T12:09:36;33.20;99.90
11784;DHT22;5949;40.386;18.150;2022-09-09T12:12:24;33.20;99.90
11784;DHT22;5949;40.386;18.150;2022-09-09T12:15:17;33.10;99.90
11784;DHT22;5949;40.386;18.150;2022-09-09T12:17:48;33.10;99.90
11784;DHT22;5949;40.386;18.150;2022-09-09T12:20:18;33.30;99.90
11784;DHT22;5949;40.386;18.150;2022-09-09T12:23:04;33.40;99.90
11784;DHT22;5949;40.386;18.150;2022-09-09T12:25:39;33.40;99.90
11784;DHT22;5949;40.386;18.150;2022-09-09T12:28:15;33.40;99.90
11784;DHT22;5949;40.386;18.150;2022-09-09T12:30:49;33.50;99.90
11784;DHT22;5949;40.386;18.150;2022-09-09T12:33:18;33.70;99.90
11784;DHT22;5949;40.386;18.150;2022-09-09T12:35:51;33.70;99.90
11784;DHT22;5949;40.386;18.150;2022-09-09T12:38:26;33.70;99.90
11784;DHT22;5949;40.386;18.150;2022-09-09T12:40:57;33.60;99.90
11784;DHT22;5949;40.386;18.150;2022-09-09T12:43:28;33.50;99.90
11784;DHT22;5949;40.386;18.150;2022-09-09T12:45:58;33.30;99.90
11784;DHT22;5949;40.386;18.150;2022-09-09T12:48:32;33.30;99.90
11784;DHT22;5949;40.386;18.150;2022-09-09T12:51:00;33.30;99.90
11784;DHT22;5949;40.386;18.150;2022-09-09T12:53:31;33.40;99.90
11784;DHT22;5949;40.386;18.150;2022-09-09T12:56:02;33.30;99.90
11784;DHT22;5949;40.386;18.150;2022-09-09T12:58:32;33.40;99.90
11784;DHT22;5949;40.386;18.150;2022-09-09T13:01:01;33.40;99.90
11784;DHT22;5949;40.386;18.150;2022-09-09T13:03:31;33.50;99.90
11784;DHT22;5949;40.386;18.150;2022-09-09T13:06:11;33.50;99.90
11784;DHT22;5949;40.386;18.150;2022-09-09T13:08:38;33.50;99.90
11784;DHT22;5949;40.386;18.150;2022-09-09T13:11:09;33.50;99.90
11784;DHT22;5949;40.386;18.150;2022-09-09T13:13:41;33.60;99.90
11784;DHT22;5949;40.386;18.150;2022-09-09T13:16:20;33.70;99.90
11784;DHT22;5949;40.386;18.150;2022-09-09T13:18:49;33.70;99.90
11784;DHT22;5949;40.386;18.150;2022-09-09T13:21:16;33.70;99.90
11784;DHT22;5949;40.386;18.150;2022-09-09T13:23:49;33.50;99.90
11784;DHT22;5949;40.386;18.150;2022-09-09T13:26:23;33.60;99.90
11784;DHT22;5949;40.386;18.150;2022-09-09T13:28:53;33.70;99.90
11784;DHT22;5949;40.386;18.150;2022-09-09T13:31:23;33.60;99.90
11784;DHT22;5949;40.386;18.150;2022-09-09T13:33:53;33.70;99.90
11784;DHT22;5949;40.386;18.150;2022-09-09T13:36:29;33.60;99.90
11784;DHT22;5949;40.386;18.150;2022-09-09T13:38:59;33.70;99.90
11784;DHT22;5949;40.386;18.150;2022-09-09T13:41:30;33.70;99.90
11784;DHT22;5949;40.386;18.150;2022-09-09T13:44:01;33.80;99.90
11784;DHT22;5949;40.386;18.150;2022-09-09T13:46:32;33.70;99.90
11784;DHT22;5949;40.386;18.150;2022-09-09T13:49:02;33.70;99.90
11784;DHT22;5949;40.386;18.150;2022-09-09T13:51:34;33.70;99.90
11784;DHT22;5949;40.386;18.150;2022-09-09T13:54:03;33.60;99.90
11784;DHT22;5949;40.386;18.150;2022-09-09T13:56:43;33.60;99.90
11784;DHT22;5949;40.386;18.150;2022-09-09T13:59:14;33.50;99.90
11784;DHT22;5949;40.386;18.150;2022-09-09T14:01:42;33.60;99.90
11784;DHT22;5949;40.386;18.150;2022-09-09T14:04:10;33.40;99.90
11784;DHT22;5949;40.386;18.150;2022-09-09T14:06:38;33.50;99.90
11784;DHT22;5949;40.386;18.150;2022-09-09T14:09:10;33.60;99.90
11784;DHT22;5949;40.386;18.150;2022-09-09T14:11:37;33.40;99.90
11784;DHT22;5949;40.386;18.150;2022-09-09T14:14:06;33.40;99.90
11784;DHT22;5949;40.386;18.150;2022-09-09T14:16:35;33.30;99.90
11784;DHT22;5949;40.386;18.150;2022-09-09T14:19:03;33.20;99.90
11784;DHT22;5949;40.386;18.150;2022-09-09T14:21:31;33.40;99.90
11784;DHT22;5949;40.386;18.150;2022-09-09T14:23:58;33.10;99.90
11784;DHT22;5949;40.386;18.150;2022-09-09T14:26:26;33.20;99.90
11784;DHT22;5949;40.386;18.150;2022-09-09T14:28:54;33.10;99.90
11784;DHT22;5949;40.386;18.150;2022-09-09T14:31:22;33.10;99.90
11784;DHT22;5949;40.386;18.150;2022-09-09T14:33:51;33.10;99.90
11784;DHT22;5949;40.386;18.150;2022-09-09T14:36:19;32.90;99.90
11784;DHT22;5949;40.386;18.150;2022-09-09T14:38:47;32.90;99.90
11784;DHT22;5949;40.386;18.150;2022-09-09T14:41:16;32.90;99.90
11784;DHT22;5949;40.386;18.150;2022-09-09T14:43:44;32.90;99.90
11784;DHT22;5949;40.386;18.150;2022-09-09T14:46:13;32.90;99.90
11784;DHT22;5949;40.386;18.150;2022-09-09T14:48:41;32.90;99.90
11784;DHT22;5949;40.386;18.150;2022-09-09T14:51:12;32.90;99.90
11784;DHT22;5949;40.386;18.150;2022-09-09T14:53:41;32.80;99.90
11784;DHT22;5949;40.386;18.150;2022-09-09T14:56:10;32.90;99.90
11784;DHT22;5949;40.386;18.150;2022-09-09T14:58:38;32.90;99.90
11784;DHT22;5949;40.386;18.150;2022-09-09T15:01:07;32.80;99.90
11784;DHT22;5949;40.386;18.150;2022-09-09T15:03:36;32.80;99.90
11784;DHT22;5949;40.386;18.150;2022-09-09T15:06:07;32.80;99.90
11784;DHT22;5949;40.386;18.150;2022-09-09T15:08:37;32.70;99.90
11784;DHT22;5949;40.386;18.150;2022-09-09T15:11:06;32.70;99.90
11784;DHT22;5949;40.386;18.150;2022-09-09T15:13:34;32.60;99.90
11784;DHT22;5949;40.386;18.150;2022-09-09T15:16:07;32.60;99.90
11784;DHT22;5949;40.386;18.150;2022-09-09T15:19:04;32.60;99.90
11784;DHT22;5949;40.386;18.150;2022-09-09T15:21:58;32.60;99.90
11784;DHT22;5949;40.386;18.150;2022-09-09T15:28:07;32.50;99.90
11784;DHT22;5949;40.386;18.150;2022-09-09T15:30:35;32.60;99.90
11784;DHT22;5949;40.386;18.150;2022-09-09T15:33:07;32.60;99.90
11784;DHT22;5949;40.386;18.150;2022-09-09T15:35:35;32.50;99.90
11784;DHT22;5949;40.386;18.150;2022-09-09T15:38:03;32.50;99.90
11784;DHT22;5949;40.386;18.150;2022-09-09T15:40:30;32.40;99.90
11784;DHT22;5949;40.386;18.150;2022-09-09T15:42:58;32.40;99.90
11784;DHT22;5949;40.386;18.150;2022-09-09T15:45:27;32.40;99.90
11784;DHT22;5949;40.386;18.150;2022-09-09T15:47:57;32.20;99.90
11784;DHT22;5949;40.386;18.150;2022-09-09T15:50:24;32.30;99.90
11784;DHT22;5949;40.386;18.150;2022-09-09T15:52:52;32.20;99.90
11784;DHT22;5949;40.386;18.150;2022-09-09T15:55:20;32.10;99.90
11784;DHT22;5949;40.386;18.150;2022-09-09T15:57:47;32.10;99.90
11784;DHT22;5949;40.386;18.150;2022-09-09T16:00:15;32.10;99.90
11784;DHT22;5949;40.386;18.150;2022-09-09T16:02:44;31.90;99.90
11784;DHT22;5949;40.386;18.150;2022-09-09T16:05:12;31.90;99.90
11784;DHT22;5949;40.386;18.150;2022-09-09T16:07:40;31.90;99.90
11784;DHT22;5949;40.386;18.150;2022-09-09T16:10:08;31.80;99.90